CYUS

Shepherd Bay Airport

Shepherd Bay, Canada
METAR CYUS 260400Z AUTO 15006KT ////SM //// NCD M12/M14 A3000
Observed Flight Rules
May-26 @ 04:00 UTC (25 minutes ago)
Wind Clouds
150° at 6 knots
  • Clear skies
Temperatures Readings
Current -12°C / 10°F
Dewpoint -14°C / 7°F
Humidity 85%
Altimeter 30" Hg
Pressure 1016 hPa
Elevation 42
METAR CYUS 260400Z AUTO 15006KT ////SM //// NCD M12/M14 A3000
Observed Flight Rules
May-26 @ 04:00 UTC
(25 minutes ago)
Wind
150° at 6 knots
Clouds
  • Clear skies
Temperature Dewpoint
-12°C / 10°F -14°C / 7°F
Humidity Altimeter Pressure
85% 30" Hg 1016 hPa